Aérodrome :
LOGIN :

S'inscrire | Disclaimer

   EN    FR    IT 

 










Légende :    VFR   VFR Marginal   IFR   IFR Intensif   IFR Très Intensif
Visi : 
Plafond : 
>= 8 km
>= 3000ft
5 à 8 km
1000 à 3000 ft
1500m à 5 km
500 à 1000 ft
800 à 1500m
200 à 500 ft
< 800m
< 200 ft
Symboles :   Orages  Brouillard  Fortes neiges  Fortes précipitations  Vent > 20 kt
SIGMETs :   Divers  Orages  Givrage  Turbulence  Onde Orograph.  Cendres Volcan.







- Altitude de l'aérodrome : 220 ft
- Code IATA : CWL
- Voir les cartes d'approche


EGFF - Cardiff Rhoose

DERNIER METAR :
  • 191050Z AUTO 08006KT 3500 RA OVC003/// //////TCU 12/12 Q1001 REDZ

METARs EXPIRÉS :
  • 191020Z AUTO 08008KT 5000 -RADZ BKN005 OVC030 12/12 Q1002
  • 190950Z AUTO 08009KT 7000 BKN010/// OVC031/// //////TCU 12/12 Q1002
  • 190920Z AUTO 09008KT 9999 SCT018/// SCT028/// BKN038/// //////TCU 12/12 Q1003
  • 190850Z AUTO 11009KT 9000 SCT004 BKN033 BKN042 12/12 Q1003
  • 190820Z AUTO 10010KT 6000 OVC003 12/12 Q1004

TAF AMD TAF EGFF
Valide du 19 à 10h jusqu'au 20 à 06h UTC


191038Z 1910/2006 14009KT 9999 FEW004 SCT030
PROB30
TEMPO 1910/1912 6000 -RADZ BKN004
BECMG 1916/1918 13015G25KT
TEMPO 1916/1924 7000 RA BKN010
PROB30
TEMPO 1921/2006 27025G35KT 4000 +SHRA BKN007
ATIS : +44 1446 729 319
Pas de NOTAMs connus pour ce terrain.



MET'MAP, la Météo Aéronautique d'un coup d'oeil ! - Copyright ORBIFLY Décembre 2007 - Disclaimer

ORBIFLY MET'MAP TEAM :

Programmation & Développement : Alexandra Zaïnal
Conception & Développement : Baudouin d'Aumeries
Co-Programmation & Développement : Marc-Olivier Méhu
Soutien technique & logistique : Manuel Goepfert

Contact : metmap@orbifly.com




SOURCES & CREDITS :

   NOAA